sensor_id;sensor_type;location;lat;lon;timestamp;P1;durP1;ratioP1;P2;durP2;ratioP2
72674;SDS011;60752;53.962;9.614;2023-03-14T00:04:07;15.55;;;2.38;;
72674;SDS011;60752;53.962;9.614;2023-03-14T00:09:27;15.18;;;2.42;;
72674;SDS011;60752;53.962;9.614;2023-03-14T00:14:50;17.97;;;2.87;;
72674;SDS011;60752;53.962;9.614;2023-03-14T00:20:11;12.57;;;2.28;;
72674;SDS011;60752;53.962;9.614;2023-03-14T00:25:35;13.77;;;2.35;;
72674;SDS011;60752;53.962;9.614;2023-03-14T00:30:57;11.50;;;2.57;;
72674;SDS011;60752;53.962;9.614;2023-03-14T00:36:17;12.23;;;2.27;;
72674;SDS011;60752;53.962;9.614;2023-03-14T00:41:38;9.80;;;2.20;;
72674;SDS011;60752;53.962;9.614;2023-03-14T00:47:00;18.17;;;2.90;;
72674;SDS011;60752;53.962;9.614;2023-03-14T00:52:21;17.30;;;3.50;;
72674;SDS011;60752;53.962;9.614;2023-03-14T00:57:42;12.18;;;2.42;;
72674;SDS011;60752;53.962;9.614;2023-03-14T01:03:04;17.55;;;2.22;;
72674;SDS011;60752;53.962;9.614;2023-03-14T01:08:25;13.40;;;1.60;;
72674;SDS011;60752;53.962;9.614;2023-03-14T01:13:45;14.02;;;1.95;;
72674;SDS011;60752;53.962;9.614;2023-03-14T01:19:08;12.55;;;2.22;;
72674;SDS011;60752;53.962;9.614;2023-03-14T01:24:29;14.50;;;2.70;;
72674;SDS011;60752;53.962;9.614;2023-03-14T01:29:50;13.63;;;2.17;;
72674;SDS011;60752;53.962;9.614;2023-03-14T01:35:12;17.35;;;2.75;;
72674;SDS011;60752;53.962;9.614;2023-03-14T01:40:33;19.00;;;2.83;;
72674;SDS011;60752;53.962;9.614;2023-03-14T01:51:46;8.68;;;2.13;;
72674;SDS011;60752;53.962;9.614;2023-03-14T01:57:11;13.98;;;2.58;;
72674;SDS011;60752;53.962;9.614;2023-03-14T02:02:35;13.33;;;1.90;;
72674;SDS011;60752;53.962;9.614;2023-03-14T02:07:58;15.80;;;2.58;;
72674;SDS011;60752;53.962;9.614;2023-03-14T02:13:20;19.30;;;2.95;;
72674;SDS011;60752;53.962;9.614;2023-03-14T02:18:42;12.47;;;2.00;;
72674;SDS011;60752;53.962;9.614;2023-03-14T02:24:07;18.83;;;2.43;;
72674;SDS011;60752;53.962;9.614;2023-03-14T02:29:35;8.30;;;2.10;;
72674;SDS011;60752;53.962;9.614;2023-03-14T02:35:00;13.68;;;2.63;;
72674;SDS011;60752;53.962;9.614;2023-03-14T02:40:25;15.43;;;2.33;;
72674;SDS011;60752;53.962;9.614;2023-03-14T02:45:48;11.63;;;1.92;;
72674;SDS011;60752;53.962;9.614;2023-03-14T02:51:09;12.18;;;2.28;;
72674;SDS011;60752;53.962;9.614;2023-03-14T02:56:31;13.20;;;1.93;;
72674;SDS011;60752;53.962;9.614;2023-03-14T03:01:53;12.50;;;2.10;;
72674;SDS011;60752;53.962;9.614;2023-03-14T03:07:13;12.18;;;1.67;;
72674;SDS011;60752;53.962;9.614;2023-03-14T03:12:34;11.87;;;2.63;;
72674;SDS011;60752;53.962;9.614;2023-03-14T03:17:56;7.27;;;2.13;;
72674;SDS011;60752;53.962;9.614;2023-03-14T03:23:17;7.35;;;2.50;;
72674;SDS011;60752;53.962;9.614;2023-03-14T03:28:37;6.20;;;2.67;;
72674;SDS011;60752;53.962;9.614;2023-03-14T03:34:00;6.47;;;2.77;;
72674;SDS011;60752;53.962;9.614;2023-03-14T03:39:20;10.38;;;3.42;;
72674;SDS011;60752;53.962;9.614;2023-03-14T03:44:41;9.52;;;3.38;;
72674;SDS011;60752;53.962;9.614;2023-03-14T03:50:03;9.03;;;3.03;;
72674;SDS011;60752;53.962;9.614;2023-03-14T03:55:25;7.13;;;2.75;;
72674;SDS011;60752;53.962;9.614;2023-03-14T04:00:46;10.73;;;3.67;;
72674;SDS011;60752;53.962;9.614;2023-03-14T04:06:08;10.50;;;5.00;;
72674;SDS011;60752;53.962;9.614;2023-03-14T04:11:31;9.33;;;3.73;;
72674;SDS011;60752;53.962;9.614;2023-03-14T04:16:51;9.68;;;2.83;;
72674;SDS011;60752;53.962;9.614;2023-03-14T04:22:13;5.38;;;1.95;;
72674;SDS011;60752;53.962;9.614;2023-03-14T04:27:34;4.83;;;1.33;;
72674;SDS011;60752;53.962;9.614;2023-03-14T04:32:55;4.95;;;1.20;;
72674;SDS011;60752;53.962;9.614;2023-03-14T04:38:17;4.75;;;1.20;;
72674;SDS011;60752;53.962;9.614;2023-03-14T04:43:38;4.10;;;0.90;;
72674;SDS011;60752;53.962;9.614;2023-03-14T04:48:58;3.90;;;1.25;;
72674;SDS011;60752;53.962;9.614;2023-03-14T04:54:20;4.32;;;0.98;;
72674;SDS011;60752;53.962;9.614;2023-03-14T04:59:41;3.53;;;0.97;;
72674;SDS011;60752;53.962;9.614;2023-03-14T05:05:02;4.03;;;1.10;;
72674;SDS011;60752;53.962;9.614;2023-03-14T05:10:24;2.97;;;0.93;;
72674;SDS011;60752;53.962;9.614;2023-03-14T05:15:45;4.47;;;1.00;;
72674;SDS011;60752;53.962;9.614;2023-03-14T05:21:06;4.17;;;1.50;;
72674;SDS011;60752;53.962;9.614;2023-03-14T05:26:28;8.90;;;1.33;;
72674;SDS011;60752;53.962;9.614;2023-03-14T05:31:49;4.38;;;1.50;;
72674;SDS011;60752;53.962;9.614;2023-03-14T05:37:09;5.37;;;1.80;;
72674;SDS011;60752;53.962;9.614;2023-03-14T05:42:31;7.35;;;1.67;;
72674;SDS011;60752;53.962;9.614;2023-03-14T05:47:52;10.30;;;1.70;;
72674;SDS011;60752;53.962;9.614;2023-03-14T05:53:13;6.20;;;1.83;;
72674;SDS011;60752;53.962;9.614;2023-03-14T05:58:35;6.93;;;1.80;;
72674;SDS011;60752;53.962;9.614;2023-03-14T06:03:56;7.40;;;1.85;;
72674;SDS011;60752;53.962;9.614;2023-03-14T06:09:17;11.68;;;2.03;;
72674;SDS011;60752;53.962;9.614;2023-03-14T06:14:39;5.20;;;1.53;;
72674;SDS011;60752;53.962;9.614;2023-03-14T06:19:59;7.70;;;1.60;;
72674;SDS011;60752;53.962;9.614;2023-03-14T06:25:20;8.27;;;2.30;;
72674;SDS011;60752;53.962;9.614;2023-03-14T06:30:42;9.80;;;2.00;;
72674;SDS011;60752;53.962;9.614;2023-03-14T06:36:03;8.73;;;2.30;;
72674;SDS011;60752;53.962;9.614;2023-03-14T06:41:24;5.53;;;2.13;;
72674;SDS011;60752;53.962;9.614;2023-03-14T06:46:46;5.77;;;1.77;;
72674;SDS011;60752;53.962;9.614;2023-03-14T06:52:07;8.80;;;1.97;;
72674;SDS011;60752;53.962;9.614;2023-03-14T06:57:28;7.22;;;1.77;;
72674;SDS011;60752;53.962;9.614;2023-03-14T07:02:50;8.35;;;2.45;;
72674;SDS011;60752;53.962;9.614;2023-03-14T07:08:10;5.17;;;1.97;;
72674;SDS011;60752;53.962;9.614;2023-03-14T07:13:31;5.47;;;1.80;;
72674;SDS011;60752;53.962;9.614;2023-03-14T07:18:53;5.78;;;1.52;;
72674;SDS011;60752;53.962;9.614;2023-03-14T07:24:14;7.27;;;1.80;;
72674;SDS011;60752;53.962;9.614;2023-03-14T07:29:35;7.72;;;1.63;;
72674;SDS011;60752;53.962;9.614;2023-03-14T07:34:57;7.90;;;1.95;;
72674;SDS011;60752;53.962;9.614;2023-03-14T07:40:17;3.70;;;1.60;;
72674;SDS011;60752;53.962;9.614;2023-03-14T07:45:38;6.40;;;1.87;;
72674;SDS011;60752;53.962;9.614;2023-03-14T07:51:00;11.52;;;2.13;;
72674;SDS011;60752;53.962;9.614;2023-03-14T07:56:21;7.88;;;2.10;;
72674;SDS011;60752;53.962;9.614;2023-03-14T08:01:42;8.47;;;1.40;;
72674;SDS011;60752;53.962;9.614;2023-03-14T08:07:04;8.93;;;2.28;;
72674;SDS011;60752;53.962;9.614;2023-03-14T08:12:25;6.05;;;1.95;;
72674;SDS011;60752;53.962;9.614;2023-03-14T08:17:45;4.40;;;1.63;;
72674;SDS011;60752;53.962;9.614;2023-03-14T08:23:08;6.07;;;1.73;;
72674;SDS011;60752;53.962;9.614;2023-03-14T08:28:28;5.95;;;1.40;;
72674;SDS011;60752;53.962;9.614;2023-03-14T08:33:49;5.33;;;1.53;;
72674;SDS011;60752;53.962;9.614;2023-03-14T08:39:11;6.30;;;2.10;;
72674;SDS011;60752;53.962;9.614;2023-03-14T08:44:32;4.38;;;1.70;;
72674;SDS011;60752;53.962;9.614;2023-03-14T08:49:53;7.30;;;2.08;;
72674;SDS011;60752;53.962;9.614;2023-03-14T08:55:15;8.57;;;1.60;;
72674;SDS011;60752;53.962;9.614;2023-03-14T09:00:36;3.90;;;1.50;;
72674;SDS011;60752;53.962;9.614;2023-03-14T09:06:00;4.35;;;1.40;;
72674;SDS011;60752;53.962;9.614;2023-03-14T09:11:23;1.37;;;0.60;;
72674;SDS011;60752;53.962;9.614;2023-03-14T09:16:44;2.40;;;0.68;;
72674;SDS011;60752;53.962;9.614;2023-03-14T09:22:05;1.83;;;0.70;;
72674;SDS011;60752;53.962;9.614;2023-03-14T09:27:27;1.57;;;0.60;;
72674;SDS011;60752;53.962;9.614;2023-03-14T09:32:48;1.87;;;0.70;;
72674;SDS011;60752;53.962;9.614;2023-03-14T09:38:08;3.42;;;0.77;;
72674;SDS011;60752;53.962;9.614;2023-03-14T09:43:31;2.30;;;0.93;;
72674;SDS011;60752;53.962;9.614;2023-03-14T09:48:55;1.87;;;0.50;;
72674;SDS011;60752;53.962;9.614;2023-03-14T09:54:18;0.80;;;0.50;;
72674;SDS011;60752;53.962;9.614;2023-03-14T09:59:51;0.95;;;0.55;;
72674;SDS011;60752;53.962;9.614;2023-03-14T10:05:15;1.83;;;0.60;;
72674;SDS011;60752;53.962;9.614;2023-03-14T10:10:37;1.42;;;0.60;;
72674;SDS011;60752;53.962;9.614;2023-03-14T10:16:00;1.30;;;0.60;;
72674;SDS011;60752;53.962;9.614;2023-03-14T10:21:25;0.83;;;0.50;;
72674;SDS011;60752;53.962;9.614;2023-03-14T10:26:48;2.07;;;0.70;;
72674;SDS011;60752;53.962;9.614;2023-03-14T10:32:16;2.28;;;0.57;;
72674;SDS011;60752;53.962;9.614;2023-03-14T10:37:47;2.13;;;0.88;;
72674;SDS011;60752;53.962;9.614;2023-03-14T10:43:13;2.93;;;0.60;;
72674;SDS011;60752;53.962;9.614;2023-03-14T10:48:39;2.33;;;0.90;;
72674;SDS011;60752;53.962;9.614;2023-03-14T10:54:00;4.43;;;0.70;;
72674;SDS011;60752;53.962;9.614;2023-03-14T10:59:22;3.47;;;0.90;;
72674;SDS011;60752;53.962;9.614;2023-03-14T11:04:49;1.63;;;0.70;;
72674;SDS011;60752;53.962;9.614;2023-03-14T11:10:20;6.30;;;0.98;;
72674;SDS011;60752;53.962;9.614;2023-03-14T11:15:47;3.73;;;0.60;;
72674;SDS011;60752;53.962;9.614;2023-03-14T11:21:16;3.10;;;0.80;;
72674;SDS011;60752;53.962;9.614;2023-03-14T11:26:44;8.10;;;1.02;;
72674;SDS011;60752;53.962;9.614;2023-03-14T11:32:12;3.63;;;1.13;;
72674;SDS011;60752;53.962;9.614;2023-03-14T11:37:36;6.27;;;0.90;;
72674;SDS011;60752;53.962;9.614;2023-03-14T11:43:06;2.92;;;1.00;;
72674;SDS011;60752;53.962;9.614;2023-03-14T11:48:37;5.15;;;1.42;;
72674;SDS011;60752;53.962;9.614;2023-03-14T11:54:04;9.87;;;1.37;;
72674;SDS011;60752;53.962;9.614;2023-03-14T11:59:33;8.18;;;1.88;;
72674;SDS011;60752;53.962;9.614;2023-03-14T12:05:21;5.78;;;0.88;;
72674;SDS011;60752;53.962;9.614;2023-03-14T12:10:51;11.70;;;0.93;;
72674;SDS011;60752;53.962;9.614;2023-03-14T12:21:58;8.55;;;1.02;;
72674;SDS011;60752;53.962;9.614;2023-03-14T12:27:42;4.40;;;1.35;;
72674;SDS011;60752;53.962;9.614;2023-03-14T12:33:26;8.63;;;1.40;;
72674;SDS011;60752;53.962;9.614;2023-03-14T12:38:56;8.60;;;2.00;;
72674;SDS011;60752;53.962;9.614;2023-03-14T12:44:42;11.57;;;1.58;;
72674;SDS011;60752;53.962;9.614;2023-03-14T12:50:07;17.53;;;1.40;;
72674;SDS011;60752;53.962;9.614;2023-03-14T12:55:35;7.55;;;1.70;;
72674;SDS011;60752;53.962;9.614;2023-03-14T13:01:03;7.15;;;1.42;;
72674;SDS011;60752;53.962;9.614;2023-03-14T13:06:44;6.27;;;1.40;;
72674;SDS011;60752;53.962;9.614;2023-03-14T13:12:09;13.63;;;1.67;;
72674;SDS011;60752;53.962;9.614;2023-03-14T13:17:33;10.65;;;1.60;;
72674;SDS011;60752;53.962;9.614;2023-03-14T13:22:54;7.45;;;1.30;;
72674;SDS011;60752;53.962;9.614;2023-03-14T13:28:15;4.47;;;1.17;;
72674;SDS011;60752;53.962;9.614;2023-03-14T13:33:38;2.80;;;1.00;;
72674;SDS011;60752;53.962;9.614;2023-03-14T13:39:01;4.00;;;1.58;;
72674;SDS011;60752;53.962;9.614;2023-03-14T13:44:23;10.27;;;1.20;;
72674;SDS011;60752;53.962;9.614;2023-03-14T13:49:48;6.15;;;1.30;;
72674;SDS011;60752;53.962;9.614;2023-03-14T13:55:14;5.70;;;1.23;;
72674;SDS011;60752;53.962;9.614;2023-03-14T14:00:36;3.87;;;0.80;;
72674;SDS011;60752;53.962;9.614;2023-03-14T14:05:58;5.93;;;1.50;;
72674;SDS011;60752;53.962;9.614;2023-03-14T14:11:21;7.68;;;1.13;;
72674;SDS011;60752;53.962;9.614;2023-03-14T14:16:52;6.10;;;1.38;;
72674;SDS011;60752;53.962;9.614;2023-03-14T14:22:15;3.63;;;0.93;;
72674;SDS011;60752;53.962;9.614;2023-03-14T14:27:37;5.18;;;1.00;;
72674;SDS011;60752;53.962;9.614;2023-03-14T14:33:12;4.72;;;1.27;;
72674;SDS011;60752;53.962;9.614;2023-03-14T14:38:39;10.73;;;1.13;;
72674;SDS011;60752;53.962;9.614;2023-03-14T14:44:00;11.18;;;1.27;;
72674;SDS011;60752;53.962;9.614;2023-03-14T14:49:27;5.40;;;1.08;;
72674;SDS011;60752;53.962;9.614;2023-03-14T14:54:52;9.53;;;1.40;;
72674;SDS011;60752;53.962;9.614;2023-03-14T15:00:19;9.50;;;1.30;;
72674;SDS011;60752;53.962;9.614;2023-03-14T15:05:41;5.45;;;1.30;;
72674;SDS011;60752;53.962;9.614;2023-03-14T15:11:03;7.00;;;1.55;;
72674;SDS011;60752;53.962;9.614;2023-03-14T15:16:27;5.43;;;1.10;;
72674;SDS011;60752;53.962;9.614;2023-03-14T15:21:49;4.65;;;0.95;;
72674;SDS011;60752;53.962;9.614;2023-03-14T15:27:13;6.22;;;1.20;;
72674;SDS011;60752;53.962;9.614;2023-03-14T15:32:35;4.43;;;1.10;;
72674;SDS011;60752;53.962;9.614;2023-03-14T15:37:56;9.18;;;1.33;;
72674;SDS011;60752;53.962;9.614;2023-03-14T15:43:18;5.78;;;1.05;;
72674;SDS011;60752;53.962;9.614;2023-03-14T15:48:38;9.87;;;1.27;;
72674;SDS011;60752;53.962;9.614;2023-03-14T15:53:59;6.37;;;1.53;;
72674;SDS011;60752;53.962;9.614;2023-03-14T15:59:21;7.97;;;1.40;;
72674;SDS011;60752;53.962;9.614;2023-03-14T16:04:42;5.63;;;1.20;;
72674;SDS011;60752;53.962;9.614;2023-03-14T16:10:03;6.03;;;1.20;;
72674;SDS011;60752;53.962;9.614;2023-03-14T16:15:27;10.90;;;1.63;;
72674;SDS011;60752;53.962;9.614;2023-03-14T16:20:51;7.75;;;1.30;;
72674;SDS011;60752;53.962;9.614;2023-03-14T16:26:13;10.40;;;1.77;;
72674;SDS011;60752;53.962;9.614;2023-03-14T16:31:36;6.43;;;1.45;;
72674;SDS011;60752;53.962;9.614;2023-03-14T16:36:57;4.13;;;1.27;;
72674;SDS011;60752;53.962;9.614;2023-03-14T16:42:17;8.17;;;1.10;;
72674;SDS011;60752;53.962;9.614;2023-03-14T16:47:41;9.67;;;1.37;;
72674;SDS011;60752;53.962;9.614;2023-03-14T16:53:02;11.43;;;1.55;;
72674;SDS011;60752;53.962;9.614;2023-03-14T16:58:23;9.05;;;1.52;;
72674;SDS011;60752;53.962;9.614;2023-03-14T17:03:45;7.93;;;1.40;;
72674;SDS011;60752;53.962;9.614;2023-03-14T17:09:07;9.23;;;1.40;;
72674;SDS011;60752;53.962;9.614;2023-03-14T17:14:28;8.45;;;1.45;;
72674;SDS011;60752;53.962;9.614;2023-03-14T17:19:50;13.20;;;2.30;;
72674;SDS011;60752;53.962;9.614;2023-03-14T17:25:10;7.85;;;1.20;;
72674;SDS011;60752;53.962;9.614;2023-03-14T17:30:31;6.22;;;1.40;;
72674;SDS011;60752;53.962;9.614;2023-03-14T17:35:54;12.93;;;1.70;;
72674;SDS011;60752;53.962;9.614;2023-03-14T17:41:15;7.10;;;1.60;;
72674;SDS011;60752;53.962;9.614;2023-03-14T17:46:35;7.15;;;1.58;;
72674;SDS011;60752;53.962;9.614;2023-03-14T17:51:57;12.73;;;1.40;;
72674;SDS011;60752;53.962;9.614;2023-03-14T17:57:18;8.57;;;1.57;;
72674;SDS011;60752;53.962;9.614;2023-03-14T18:02:39;9.23;;;1.98;;
72674;SDS011;60752;53.962;9.614;2023-03-14T18:08:01;9.27;;;1.42;;
72674;SDS011;60752;53.962;9.614;2023-03-14T18:13:22;13.07;;;1.80;;
72674;SDS011;60752;53.962;9.614;2023-03-14T18:18:43;8.50;;;2.25;;
72674;SDS011;60752;53.962;9.614;2023-03-14T18:24:06;12.77;;;1.88;;
72674;SDS011;60752;53.962;9.614;2023-03-14T18:29:27;6.60;;;2.00;;
72674;SDS011;60752;53.962;9.614;2023-03-14T18:34:48;9.07;;;1.77;;
72674;SDS011;60752;53.962;9.614;2023-03-14T18:40:10;7.82;;;1.38;;
72674;SDS011;60752;53.962;9.614;2023-03-14T18:45:32;6.00;;;1.20;;
72674;SDS011;60752;53.962;9.614;2023-03-14T18:50:53;8.73;;;1.83;;
72674;SDS011;60752;53.962;9.614;2023-03-14T18:56:15;5.95;;;1.10;;
72674;SDS011;60752;53.962;9.614;2023-03-14T19:01:36;5.55;;;1.30;;
72674;SDS011;60752;53.962;9.614;2023-03-14T19:06:57;6.67;;;1.30;;
72674;SDS011;60752;53.962;9.614;2023-03-14T19:12:19;7.53;;;1.10;;
72674;SDS011;60752;53.962;9.614;2023-03-14T19:17:40;3.33;;;1.05;;
72674;SDS011;60752;53.962;9.614;2023-03-14T19:23:01;15.87;;;1.83;;
72674;SDS011;60752;53.962;9.614;2023-03-14T19:28:23;7.93;;;1.07;;
72674;SDS011;60752;53.962;9.614;2023-03-14T19:33:44;5.40;;;1.70;;
72674;SDS011;60752;53.962;9.614;2023-03-14T19:39:05;6.05;;;0.90;;
72674;SDS011;60752;53.962;9.614;2023-03-14T19:44:27;5.00;;;0.80;;
72674;SDS011;60752;53.962;9.614;2023-03-14T19:49:48;6.60;;;1.25;;
72674;SDS011;60752;53.962;9.614;2023-03-14T19:55:08;4.28;;;1.25;;
72674;SDS011;60752;53.962;9.614;2023-03-14T20:00:31;3.87;;;1.30;;
72674;SDS011;60752;53.962;9.614;2023-03-14T20:05:52;3.78;;;1.02;;
72674;SDS011;60752;53.962;9.614;2023-03-14T20:11:13;3.90;;;0.98;;
72674;SDS011;60752;53.962;9.614;2023-03-14T20:16:35;5.07;;;1.13;;
72674;SDS011;60752;53.962;9.614;2023-03-14T20:21:56;1.80;;;0.70;;
72674;SDS011;60752;53.962;9.614;2023-03-14T20:27:17;3.00;;;1.13;;
72674;SDS011;60752;53.962;9.614;2023-03-14T20:32:39;4.75;;;0.68;;
72674;SDS011;60752;53.962;9.614;2023-03-14T20:38:00;4.87;;;1.10;;
72674;SDS011;60752;53.962;9.614;2023-03-14T20:43:21;10.35;;;1.67;;
72674;SDS011;60752;53.962;9.614;2023-03-14T20:48:43;5.43;;;1.20;;
72674;SDS011;60752;53.962;9.614;2023-03-14T20:58:48;2.87;;;1.00;;
72674;SDS011;60752;53.962;9.614;2023-03-14T21:03:48;8.95;;;0.93;;
72674;SDS011;60752;53.962;9.614;2023-03-14T21:08:48;2.90;;;1.17;;
72674;SDS011;60752;53.962;9.614;2023-03-14T21:13:50;3.13;;;0.80;;
72674;SDS011;60752;53.962;9.614;2023-03-14T21:18:50;4.07;;;1.10;;
72674;SDS011;60752;53.962;9.614;2023-03-14T21:23:51;3.37;;;0.60;;
72674;SDS011;60752;53.962;9.614;2023-03-14T21:28:52;4.73;;;1.03;;
72674;SDS011;60752;53.962;9.614;2023-03-14T21:33:53;1.90;;;0.70;;
72674;SDS011;60752;53.962;9.614;2023-03-14T21:38:53;1.07;;;0.50;;
72674;SDS011;60752;53.962;9.614;2023-03-14T21:43:55;0.97;;;0.40;;
72674;SDS011;60752;53.962;9.614;2023-03-14T21:48:55;3.58;;;0.82;;
72674;SDS011;60752;53.962;9.614;2023-03-14T21:53:56;6.57;;;1.10;;
72674;SDS011;60752;53.962;9.614;2023-03-14T22:02:58;2.10;;;0.75;;
72674;SDS011;60752;53.962;9.614;2023-03-14T22:07:58;2.43;;;0.73;;
72674;SDS011;60752;53.962;9.614;2023-03-14T22:09:34;2.33;;;0.68;;
72674;SDS011;60752;53.962;9.614;2023-03-14T22:09:44;6.45;;;0.90;;
72674;SDS011;60752;53.962;9.614;2023-03-14T22:09:54;5.23;;;0.90;;
72674;SDS011;60752;53.962;9.614;2023-03-14T22:10:13;7.82;;;1.42;;
72674;SDS011;60752;53.962;9.614;2023-03-14T22:10:24;5.10;;;1.05;;
72674;SDS011;60752;53.962;9.614;2023-03-14T22:10:45;5.10;;;1.17;;
72674;SDS011;60752;53.962;9.614;2023-03-14T22:41:54;2.07;;;0.70;;
72674;SDS011;60752;53.962;9.614;2023-03-14T23:11:56;2.67;;;0.73;;
72674;SDS011;60752;53.962;9.614;2023-03-14T23:41:58;3.57;;;0.83;;
